Orlando, Florida
Traffic Map
Current Weather Conditions
Orlando, Florida
Clear
Clear
78°
Feels Like: 81°
Wind Chill: 78° Ceiling: Unl
Heat Index: 81° Visibility: 8mi
Dew Point: 76° Wind: 3mph
Humidity: 93% Direction: 170° (S)
Pressure: 30.04in Gusts: 0mph
Raw Report DataKORL 241053Z 17003KT 8SM CLR 26/24 A3004 RMK AO2 SLP173 T02560244
Traffic Incident Summary
Active as of:
Severity:
Category:
InformationThere was an issue retrieving the traffic information for this location. Please try a different location or try again shortly.
Advertisements
Track Severe Weather on mobile